Etusivu
METAR-TAF:

METAR-TAF

Lentoasemat :

Ioánninan lentoasema

Ioannina, Kreikka

Leveyspiiri: 39-41-47N, Pituuspiiri: 20-49-21E, korkeus merenpinnasta: 475 m

Tämänhetkinen sää

Tämä raportti tehtiin 24 minuuttia sitten, kello 22.20 UTC
tyyntä
Lämpötila 23°C
Kosteus 69%
Ilmanpaine 1010 hPa

METAR: LGIO 222220Z AUTO 00000KT //// // ////// 23/17 Q1010 RE//

Aika: 01:44 (22:44 UTC)

Sääennuste

Tämä raportti tehtiin 2 tuntia ja 44 minuuttia sitten, kello 20.00 UTC
Ennuste voimassa 22. päivästä klo 21 UTC - 23. päivään klo 06 UTC
Tuuli 3 kn eri suunnista
Näkyvyys 10 km tai enemmän
Muutamia pilviä 2500 ft:n korkeudessa

TAF: LGIO 222000Z 2221/2306 VRB03KT 9999 FEW025

Säähavainnot ja -ennusteet yli 4000 lentoasemalta (METAR- ja TAF-raportit).

Käytössä olevat sääasemat on merkitty karttaan keltaisilla ja punaisilla pisteillä.

Aseta hiiri pisteen päälle nähdäksesi sääaseman nimen.

Klikkaa sitten nähdäksesi säähavainnot ja -ennusteet.

Kartan vaihtaminen: klikkaa mustalla rastilla varustettuja vihreitä pisteitä, niin voit zoomata sisään; viivalla varustettua vihreää pistettä, niin voit zoomata ulos tai vihreitä nuolia, niin pääset viereisille kartoille.


METAR-TAF: